createdAt,value
2022-08-31T00:00:22.688Z,0.109
2022-08-31T00:01:07.645Z,0.219
2022-08-31T00:02:21.236Z,0.340
2022-08-31T00:03:07.770Z,0.340
2022-08-31T00:04:07.338Z,0.219
2022-08-31T00:05:07.846Z,0.219
2022-08-31T00:06:07.567Z,0.340
2022-08-31T00:07:07.541Z,0.449
2022-08-31T00:08:21.144Z,0.219
2022-08-31T00:09:07.454Z,0.449
2022-08-31T00:10:07.243Z,0.219
2022-08-31T00:11:07.467Z,0.449
2022-08-31T00:12:07.292Z,0.219
2022-08-31T00:13:07.617Z,0.680
2022-08-31T00:14:07.275Z,0.449
2022-08-31T00:15:07.316Z,0.680
2022-08-31T00:16:07.602Z,0.449
2022-08-31T00:17:07.677Z,0.449
2022-08-31T00:18:07.064Z,0.449
2022-08-31T00:19:07.143Z,0.449
2022-08-31T00:20:33.348Z,0.449
2022-08-31T00:21:07.631Z,0.449
2022-08-31T00:22:07.269Z,0.109
2022-08-31T00:23:07.538Z,0.560
2022-08-31T00:24:07.109Z,0.219
2022-08-31T00:25:07.354Z,0.680
2022-08-31T00:26:07.554Z,0.340
2022-08-31T00:27:07.704Z,1.009
2022-08-31T00:28:07.222Z,0.790
2022-08-31T00:29:07.367Z,0.560
2022-08-31T00:30:08.021Z,0.680
2022-08-31T00:31:07.470Z,0.449
2022-08-31T00:32:07.901Z,0.790
2022-08-31T00:33:07.460Z,0.449
2022-08-31T00:34:07.573Z,0.449
2022-08-31T00:35:08.023Z,0.109
2022-08-31T00:36:07.321Z,0.109
2022-08-31T00:37:07.259Z,0.560
2022-08-31T00:38:07.419Z,0.449
2022-08-31T00:39:07.341Z,0.449
2022-08-31T00:40:07.692Z,0.109
2022-08-31T00:41:07.328Z,0.449
2022-08-31T00:42:07.501Z,0.449
2022-08-31T00:43:07.666Z,0.340
2022-08-31T00:44:07.256Z,0.340
2022-08-31T00:45:07.567Z,0.560
2022-08-31T00:46:07.274Z,0.340
2022-08-31T00:47:07.513Z,0.449
2022-08-31T00:48:07.554Z,0.340
2022-08-31T00:49:07.449Z,0.680
2022-08-31T00:50:07.694Z,0.219
2022-08-31T00:51:07.014Z,0.680
2022-08-31T00:52:07.096Z,0.109
2022-08-31T00:53:07.331Z,0.449
2022-08-31T00:54:07.426Z,0.219
2022-08-31T00:55:07.599Z,0.219
2022-08-31T00:56:07.016Z,0.219
2022-08-31T00:57:07.121Z,0.109
2022-08-31T00:58:07.426Z,0.219
2022-08-31T00:59:07.624Z,0.340
2022-08-31T01:00:08.637Z,0.680
2022-08-31T01:01:07.477Z,0.790
2022-08-31T01:02:07.180Z,0.340
2022-08-31T01:03:07.483Z,0.899
2022-08-31T01:04:07.203Z,0.219
2022-08-31T01:05:07.535Z,0.109
2022-08-31T01:06:07.685Z,0.340
2022-08-31T01:07:07.269Z,0.109
2022-08-31T01:08:07.537Z,0
2022-08-31T01:09:07.557Z,0
2022-08-31T01:10:07.888Z,0.109
2022-08-31T01:11:07.501Z,0.109
2022-08-31T01:12:07.882Z,0.109
2022-08-31T01:13:07.315Z,0.340
2022-08-31T01:14:07.427Z,0.370
2022-08-31T01:15:07.921Z,0.310
2022-08-31T01:16:07.411Z,0
2022-08-31T01:17:07.789Z,0.239
2022-08-31T01:18:07.125Z,0
2022-08-31T01:19:07.222Z,0.119
2022-08-31T01:20:07.541Z,0
2022-08-31T01:21:07.602Z,0.100
2022-08-31T01:22:07.017Z,0.239
2022-08-31T01:23:07.428Z,0
2022-08-31T01:24:07.121Z,0
2022-08-31T01:25:07.404Z,0
2022-08-31T01:26:07.861Z,0
2022-08-31T01:27:07.039Z,0
2022-08-31T01:28:07.285Z,0
2022-08-31T01:29:07.389Z,0
2022-08-31T01:30:08.095Z,0
2022-08-31T01:31:07.635Z,0
2022-08-31T01:32:07.349Z,0
2022-08-31T01:33:07.470Z,0
2022-08-31T01:34:07.487Z,0
2022-08-31T01:35:07.594Z,0
2022-08-31T01:36:07.077Z,0.109
2022-08-31T01:37:06.988Z,0
2022-08-31T01:38:07.343Z,0
2022-08-31T01:39:07.696Z,0.109
2022-08-31T01:40:07.594Z,0
2022-08-31T01:41:07.263Z,0
2022-08-31T01:42:07.081Z,0
2022-08-31T01:43:07.484Z,0
2022-08-31T01:44:07.655Z,0
2022-08-31T01:45:07.575Z,0
2022-08-31T01:46:09.058Z,0
2022-08-31T01:47:07.456Z,0
2022-08-31T01:48:07.432Z,0
2022-08-31T01:49:07.477Z,0
2022-08-31T01:50:07.752Z,0
2022-08-31T01:51:07.188Z,0
2022-08-31T01:52:07.504Z,0
2022-08-31T01:53:07.540Z,0
2022-08-31T01:54:07.472Z,0
2022-08-31T01:55:07.603Z,0
2022-08-31T01:56:07.461Z,0.109
2022-08-31T01:57:07.620Z,0
2022-08-31T01:58:07.704Z,0
2022-08-31T01:59:08.474Z,0
2022-08-31T02:00:07.756Z,0
2022-08-31T02:01:15.565Z,0
2022-08-31T02:02:07.609Z,0
2022-08-31T02:03:07.112Z,0.109
2022-08-31T02:04:07.305Z,0
2022-08-31T02:05:07.652Z,0
2022-08-31T02:06:07.409Z,0
2022-08-31T02:07:07.692Z,0
2022-08-31T02:08:07.361Z,0
2022-08-31T02:09:07.531Z,0
2022-08-31T02:10:07.364Z,0.109
2022-08-31T02:11:12.342Z,0
2022-08-31T02:12:07.434Z,0
2022-08-31T02:13:12.747Z,0.109
2022-08-31T02:14:07.712Z,0
2022-08-31T02:15:15.496Z,0.109
2022-08-31T02:16:07.541Z,0.109
2022-08-31T02:17:07.695Z,0.109
2022-08-31T02:18:06.962Z,0
2022-08-31T02:19:06.973Z,0
2022-08-31T02:20:07.413Z,0
2022-08-31T02:21:07.802Z,0.109
2022-08-31T02:22:07.111Z,0
2022-08-31T02:23:07.199Z,0.109
2022-08-31T02:24:07.384Z,0
2022-08-31T02:25:08.530Z,0
2022-08-31T02:26:07.603Z,0
2022-08-31T02:27:07.696Z,0
2022-08-31T02:28:07.240Z,0
2022-08-31T02:29:07.512Z,0.109
2022-08-31T02:30:07.924Z,0
2022-08-31T02:31:07.291Z,0.219
2022-08-31T02:32:08.028Z,0
2022-08-31T02:33:07.696Z,0.109
2022-08-31T02:34:06.970Z,0
2022-08-31T02:35:07.241Z,0
2022-08-31T02:36:07.534Z,0
2022-08-31T02:37:07.307Z,0
2022-08-31T02:38:07.597Z,0
2022-08-31T02:39:07.056Z,0.109
2022-08-31T02:40:07.423Z,0.109
2022-08-31T02:41:07.461Z,0
2022-08-31T02:42:07.571Z,0
2022-08-31T02:43:07.506Z,0
2022-08-31T02:44:07.245Z,0.219
2022-08-31T02:45:07.640Z,0
2022-08-31T02:46:07.719Z,0
2022-08-31T02:47:07.345Z,0
2022-08-31T02:48:07.566Z,0
2022-08-31T02:49:07.636Z,0.109
2022-08-31T02:50:07.395Z,0.119
2022-08-31T02:51:07.376Z,0
2022-08-31T02:52:07.363Z,0
2022-08-31T02:53:07.386Z,0
2022-08-31T02:54:07.689Z,0
2022-08-31T02:55:07.222Z,0
2022-08-31T02:56:07.501Z,0
2022-08-31T02:57:07.569Z,0
2022-08-31T02:58:07.442Z,0
2022-08-31T02:59:07.339Z,0
2022-08-31T03:00:08.136Z,0
2022-08-31T03:01:07.690Z,0.239
2022-08-31T03:02:07.673Z,0
2022-08-31T03:03:07.501Z,0
2022-08-31T03:04:07.167Z,0.219
2022-08-31T03:05:07.476Z,0
2022-08-31T03:06:07.603Z,0
2022-08-31T03:07:07.098Z,0.109
2022-08-31T03:08:07.073Z,0
2022-08-31T03:09:07.368Z,0.109
2022-08-31T03:10:07.706Z,0
2022-08-31T03:11:07.200Z,0
2022-08-31T03:12:07.384Z,0.109
2022-08-31T03:13:07.182Z,0
2022-08-31T03:14:07.487Z,0.100
2022-08-31T03:15:07.829Z,0
2022-08-31T03:16:07.041Z,0.109
2022-08-31T03:17:07.568Z,0
2022-08-31T03:18:07.249Z,0.109
2022-08-31T03:19:07.391Z,0
2022-08-31T03:20:07.472Z,0.109
2022-08-31T03:21:07.531Z,0.109
2022-08-31T03:22:07.651Z,0
2022-08-31T03:23:07.179Z,0
2022-08-31T03:24:07.655Z,0
2022-08-31T03:25:07.225Z,0.219
2022-08-31T03:26:07.439Z,0.219
2022-08-31T03:27:07.577Z,0
2022-08-31T03:28:07.477Z,0.109
2022-08-31T03:29:07.382Z,0
2022-08-31T03:30:07.592Z,0
2022-08-31T03:31:07.271Z,0.109
2022-08-31T03:32:07.551Z,0
2022-08-31T03:33:07.584Z,0
2022-08-31T03:34:07.472Z,0
2022-08-31T03:35:07.539Z,0.109
2022-08-31T03:36:07.101Z,0.219
2022-08-31T03:37:07.223Z,0
2022-08-31T03:38:07.230Z,0.109
2022-08-31T03:39:07.691Z,0.219
2022-08-31T03:40:07.338Z,0.219
2022-08-31T03:41:07.630Z,0.219
2022-08-31T03:42:07.033Z,0.109
2022-08-31T03:43:07.407Z,0.219
2022-08-31T03:44:07.688Z,0.109
2022-08-31T03:45:08.542Z,0
2022-08-31T03:46:11.782Z,0.109
2022-08-31T03:47:07.536Z,0.340
2022-08-31T03:48:12.017Z,0.109
2022-08-31T03:49:07.648Z,0.219
2022-08-31T03:50:07.044Z,0.219
2022-08-31T03:51:07.154Z,0.109
2022-08-31T03:52:07.430Z,0.109
2022-08-31T03:53:07.529Z,0
2022-08-31T03:54:07.061Z,0
2022-08-31T03:55:07.298Z,0.219
2022-08-31T03:56:07.466Z,0.109
2022-08-31T03:57:07.564Z,0.219
2022-08-31T03:58:06.866Z,0.340
2022-08-31T03:59:06.984Z,0.449
2022-08-31T04:00:07.993Z,0.560
2022-08-31T04:01:07.229Z,0.449
2022-08-31T04:02:07.863Z,0.219
2022-08-31T04:03:07.171Z,0.449
2022-08-31T04:04:07.230Z,0
2022-08-31T04:05:07.763Z,0
2022-08-31T04:06:07.610Z,0
2022-08-31T04:07:07.126Z,0
2022-08-31T04:08:07.374Z,0
2022-08-31T04:09:07.692Z,0
2022-08-31T04:10:07.337Z,0
2022-08-31T04:11:07.622Z,0
2022-08-31T04:12:07.257Z,0
2022-08-31T04:13:07.496Z,0
2022-08-31T04:14:07.239Z,0
2022-08-31T04:15:07.517Z,0
2022-08-31T04:16:07.267Z,0
2022-08-31T04:17:07.589Z,0
2022-08-31T04:18:07.449Z,0
2022-08-31T04:19:08.104Z,0
2022-08-31T04:20:07.738Z,0.050
2022-08-31T04:21:07.210Z,0.109
2022-08-31T04:22:07.431Z,0
2022-08-31T04:23:07.391Z,0.219
2022-08-31T04:24:07.371Z,0.680
2022-08-31T04:25:07.869Z,0.959
2022-08-31T04:26:07.321Z,0.899
2022-08-31T04:27:07.692Z,1.279
2022-08-31T04:28:07.117Z,2.259
2022-08-31T04:29:10.950Z,2.650
2022-08-31T04:30:07.821Z,3.539
2022-08-31T04:31:07.429Z,4.519
2022-08-31T04:32:07.404Z,5.670
2022-08-31T04:33:07.498Z,6.829
2022-08-31T04:34:07.251Z,8.539
2022-08-31T04:35:07.474Z,10.32
2022-08-31T04:36:07.915Z,12.10
2022-08-31T04:37:07.458Z,14.5
2022-08-31T04:38:07.451Z,16.79
2022-08-31T04:39:07.534Z,19.89
2022-08-31T04:40:07.290Z,23.5
2022-08-31T04:41:07.311Z,27
2022-08-31T04:42:07.586Z,31.89
2022-08-31T04:43:07.283Z,36.70
2022-08-31T04:44:07.661Z,42.20
2022-08-31T04:45:07.552Z,46.90
2022-08-31T04:46:07.496Z,52.20
2022-08-31T04:47:07.227Z,57.40
2022-08-31T04:48:07.711Z,62.09
2022-08-31T04:49:07.581Z,67.09
2022-08-31T04:50:07.671Z,72.19
2022-08-31T04:51:07.535Z,77.40
2022-08-31T04:52:07.213Z,82.90
2022-08-31T04:53:07.418Z,88
2022-08-31T04:54:07.488Z,93.80
2022-08-31T04:55:07.795Z,98.69
2022-08-31T04:56:07.219Z,103.6
2022-08-31T04:57:07.457Z,107.9
2022-08-31T04:58:07.560Z,112.1
2022-08-31T04:59:06.952Z,116.6
2022-08-31T05:00:07.663Z,120.8
2022-08-31T05:01:07.872Z,126
2022-08-31T05:02:07.515Z,131.5
2022-08-31T05:03:07.206Z,137.8
2022-08-31T05:04:07.570Z,145.1
2022-08-31T05:05:07.775Z,153.3
2022-08-31T05:06:07.550Z,161.8
2022-08-31T05:07:07.843Z,170.6
2022-08-31T05:08:07.282Z,178.3
2022-08-31T05:09:07.907Z,185.3
2022-08-31T05:10:07.625Z,191.8
2022-08-31T05:11:07.516Z,197.3
2022-08-31T05:12:07.788Z,202.1
2022-08-31T05:13:07.424Z,206.5
2022-08-31T05:14:07.790Z,210.6
2022-08-31T05:15:07.723Z,215.5
2022-08-31T05:16:07.562Z,220.1
2022-08-31T05:17:09.782Z,224.6
2022-08-31T05:18:07.950Z,228.5
2022-08-31T05:19:07.528Z,234
2022-08-31T05:20:07.859Z,240.3
2022-08-31T05:21:07.388Z,247.6
2022-08-31T05:22:07.682Z,254.8
2022-08-31T05:23:07.240Z,263.2
2022-08-31T05:24:07.647Z,272
2022-08-31T05:25:07.511Z,281
2022-08-31T05:26:07.374Z,292
2022-08-31T05:27:07.623Z,304
2022-08-31T05:28:07.185Z,317
2022-08-31T05:29:07.505Z,332
2022-08-31T05:30:07.312Z,349
2022-08-31T05:31:08.114Z,366
2022-08-31T05:32:07.275Z,385
2022-08-31T05:33:07.579Z,405
2022-08-31T05:34:07.142Z,425
2022-08-31T05:35:07.488Z,445
2022-08-31T05:36:07.788Z,466
2022-08-31T05:37:07.150Z,486
2022-08-31T05:38:07.636Z,503
2022-08-31T05:39:07.326Z,520
2022-08-31T05:40:08.125Z,538
2022-08-31T05:41:07.595Z,557
2022-08-31T05:42:07.745Z,576
2022-08-31T05:43:07.232Z,598
2022-08-31T05:44:07.491Z,621
2022-08-31T05:45:07.960Z,642
2022-08-31T05:46:10.260Z,663
2022-08-31T05:47:07.626Z,683
2022-08-31T05:48:07.336Z,705
2022-08-31T05:49:07.738Z,727
2022-08-31T05:50:08.285Z,750
2022-08-31T05:51:07.647Z,772
2022-08-31T05:52:07.297Z,793
2022-08-31T05:53:07.234Z,815
2022-08-31T05:54:07.265Z,839
2022-08-31T05:55:07.682Z,863
2022-08-31T05:56:07.368Z,889
2022-08-31T05:57:07.604Z,915
2022-08-31T05:58:07.611Z,937
2022-08-31T05:59:07.188Z,959
2022-08-31T06:00:08.269Z,983
2022-08-31T06:01:07.668Z,1010
2022-08-31T06:02:07.683Z,1050
2022-08-31T06:03:07.191Z,1090
2022-08-31T06:04:07.407Z,1150
2022-08-31T06:05:08.414Z,1200
2022-08-31T06:06:08.151Z,1260
2022-08-31T06:07:07.754Z,1320
2022-08-31T06:08:09.065Z,1380
2022-08-31T06:09:07.728Z,1430
2022-08-31T06:10:07.349Z,1490
2022-08-31T06:11:07.539Z,1530
2022-08-31T06:12:07.858Z,1580
2022-08-31T06:13:07.391Z,1620
2022-08-31T06:14:07.793Z,1660
2022-08-31T06:15:07.540Z,1700
2022-08-31T06:16:07.358Z,1735
2022-08-31T06:17:07.718Z,1751
2022-08-31T06:18:07.094Z,1755.
2022-08-31T06:19:07.657Z,1750.
2022-08-31T06:20:07.539Z,1740
2022-08-31T06:21:07.573Z,1731.
2022-08-31T06:22:07.806Z,1728.
2022-08-31T06:23:07.404Z,1733
2022-08-31T06:24:07.630Z,1741
2022-08-31T06:25:07.606Z,1753
2022-08-31T06:26:07.240Z,1767
2022-08-31T06:27:07.909Z,1790
2022-08-31T06:28:07.317Z,1820
2022-08-31T06:29:07.666Z,1852
2022-08-31T06:30:07.332Z,1878
2022-08-31T06:31:07.896Z,1894
2022-08-31T06:32:07.540Z,1904.
2022-08-31T06:33:07.908Z,1911.
2022-08-31T06:34:07.502Z,1914.
2022-08-31T06:35:07.733Z,1907
2022-08-31T06:36:07.183Z,1897.
2022-08-31T06:37:07.407Z,1909
2022-08-31T06:38:07.390Z,1940
2022-08-31T06:39:07.743Z,1990
2022-08-31T06:40:07.564Z,2050
2022-08-31T06:41:07.222Z,2120
2022-08-31T06:42:07.790Z,2200
2022-08-31T06:43:07.415Z,2280
2022-08-31T06:44:07.710Z,2370
2022-08-31T06:45:07.503Z,2400
2022-08-31T06:46:07.343Z,2500
2022-08-31T06:47:07.742Z,2600
2022-08-31T06:48:07.334Z,2800
2022-08-31T06:49:08.614Z,2900
2022-08-31T06:50:07.569Z,3000
2022-08-31T06:51:07.734Z,3120
2022-08-31T06:52:07.105Z,3210
2022-08-31T06:53:07.513Z,3300
2022-08-31T06:54:27.568Z,3370
2022-08-31T06:55:07.665Z,3420
2022-08-31T06:56:07.233Z,3440
2022-08-31T06:57:07.660Z,3500
2022-08-31T06:58:07.305Z,3540
2022-08-31T06:59:12.605Z,3700
2022-08-31T07:00:07.991Z,3900
2022-08-31T07:01:12.886Z,4100
2022-08-31T07:02:07.664Z,4200
2022-08-31T07:03:07.711Z,4400
2022-08-31T07:04:07.394Z,4600
2022-08-31T07:05:07.416Z,4800
2022-08-31T07:06:07.867Z,4900
2022-08-31T07:07:07.281Z,5100
2022-08-31T07:08:07.415Z,5200
2022-08-31T07:09:07.932Z,5380
2022-08-31T07:10:07.456Z,5500
2022-08-31T07:11:07.413Z,5600
2022-08-31T07:12:07.748Z,5800
2022-08-31T07:13:07.380Z,5900
2022-08-31T07:14:07.696Z,6000
2022-08-31T07:15:07.678Z,6800
2022-08-31T07:16:07.761Z,7000
2022-08-31T07:17:07.654Z,7430
2022-08-31T07:18:10.400Z,7300
2022-08-31T07:19:21.401Z,7300
2022-08-31T07:20:07.894Z,7600
2022-08-31T07:21:21.620Z,7800
2022-08-31T07:22:07.158Z,8100
2022-08-31T07:23:07.360Z,8400
2022-08-31T07:24:07.529Z,8500
2022-08-31T07:25:08.181Z,8660
2022-08-31T07:26:07.450Z,8662
2022-08-31T07:27:07.807Z,8658
2022-08-31T07:28:07.095Z,8700
2022-08-31T07:29:07.502Z,8800
2022-08-31T07:30:08.257Z,9000
2022-08-31T07:31:07.720Z,9000
2022-08-31T07:32:07.860Z,9000
2022-08-31T07:33:07.433Z,10000
2022-08-31T07:34:07.769Z,10000
2022-08-31T07:35:07.689Z,10000
2022-08-31T07:36:07.790Z,9900
2022-08-31T07:37:07.289Z,10000
2022-08-31T07:38:07.717Z,0
2022-08-31T07:39:07.589Z,10000
2022-08-31T07:40:08.348Z,10000
2022-08-31T07:41:08.195Z,14000
2022-08-31T07:42:07.630Z,14000
2022-08-31T07:43:07.811Z,14000
2022-08-31T07:44:07.919Z,15000
2022-08-31T07:45:11.645Z,10000
2022-08-31T07:46:07.648Z,16000
2022-08-31T07:47:07.911Z,10000
2022-08-31T07:48:07.601Z,14000
2022-08-31T07:49:07.839Z,10000
2022-08-31T07:50:07.289Z,14000
2022-08-31T07:51:07.554Z,14000
2022-08-31T07:52:07.444Z,0
2022-08-31T07:53:07.689Z,0
2022-08-31T07:54:07.604Z,0
2022-08-31T07:55:07.635Z,0
2022-08-31T07:56:07.240Z,0
2022-08-31T07:57:07.646Z,10000
2022-08-31T07:58:07.347Z,12000
2022-08-31T07:59:07.752Z,12400
2022-08-31T08:00:08.638Z,12000
2022-08-31T08:01:07.712Z,10000
2022-08-31T08:02:07.414Z,0
2022-08-31T08:03:07.193Z,0
2022-08-31T08:04:07.606Z,0
2022-08-31T08:05:07.139Z,20000
2022-08-31T08:06:07.807Z,20000
2022-08-31T08:07:07.417Z,0
2022-08-31T08:08:10.671Z,0
2022-08-31T08:09:22.220Z,0
2022-08-31T08:10:07.346Z,13000
2022-08-31T08:11:07.385Z,12000
2022-08-31T08:12:07.832Z,12300
2022-08-31T08:13:07.294Z,10000
2022-08-31T08:14:08.725Z,10000
2022-08-31T08:15:07.355Z,11000
2022-08-31T08:16:07.314Z,11480
2022-08-31T08:17:07.984Z,11460
2022-08-31T08:18:07.665Z,11500
2022-08-31T08:19:07.616Z,11000
2022-08-31T08:20:10.455Z,10000
2022-08-31T08:21:07.702Z,10000
2022-08-31T08:22:07.122Z,0
2022-08-31T08:23:07.617Z,0
2022-08-31T08:24:07.996Z,0
2022-08-31T08:25:07.926Z,0
2022-08-31T08:26:07.333Z,0
2022-08-31T08:27:07.253Z,0
2022-08-31T08:28:22.829Z,0
2022-08-31T08:29:07.229Z,0
2022-08-31T08:30:07.903Z,0
2022-08-31T08:31:07.687Z,20000
2022-08-31T08:32:07.436Z,0
2022-08-31T08:33:07.537Z,0
2022-08-31T08:34:07.055Z,0
2022-08-31T08:35:07.895Z,10000
2022-08-31T08:36:07.877Z,0
2022-08-31T08:37:07.571Z,0
2022-08-31T08:38:08.079Z,28000
2022-08-31T08:39:07.399Z,0
2022-08-31T08:40:07.296Z,0
2022-08-31T08:41:07.681Z,0
2022-08-31T08:42:07.152Z,0
2022-08-31T08:43:07.703Z,0
2022-08-31T08:44:07.153Z,0
2022-08-31T08:45:07.757Z,0
2022-08-31T08:46:31.273Z,0
2022-08-31T08:47:07.496Z,20000
2022-08-31T08:48:07.791Z,0
2022-08-31T08:49:07.323Z,20000
2022-08-31T08:50:07.364Z,24000
2022-08-31T08:51:07.815Z,0
2022-08-31T08:52:07.403Z,0
2022-08-31T08:53:07.704Z,0
2022-08-31T08:54:07.490Z,10000
2022-08-31T08:55:07.959Z,0
2022-08-31T08:56:29.584Z,0
2022-08-31T08:57:07.301Z,0
2022-08-31T08:58:07.670Z,0
2022-08-31T08:59:11.517Z,0
2022-08-31T09:00:07.812Z,0
2022-08-31T09:01:07.937Z,0
2022-08-31T09:02:07.780Z,0
2022-08-31T09:03:07.429Z,0
2022-08-31T09:04:07.650Z,0
2022-08-31T09:05:08.042Z,0
2022-08-31T09:06:07.795Z,0
2022-08-31T09:07:07.599Z,0
2022-08-31T09:08:07.279Z,0
2022-08-31T09:09:07.684Z,0
2022-08-31T09:10:07.310Z,10000
2022-08-31T09:11:07.541Z,0
2022-08-31T09:12:10.194Z,0
2022-08-31T09:13:07.048Z,0
2022-08-31T09:14:07.447Z,20000
2022-08-31T09:15:07.786Z,0
2022-08-31T09:16:08.310Z,0
2022-08-31T09:17:08.134Z,0
2022-08-31T09:18:07.353Z,0
2022-08-31T09:19:07.845Z,0
2022-08-31T09:20:07.259Z,0
2022-08-31T09:21:07.596Z,0
2022-08-31T09:22:07.673Z,0
2022-08-31T09:23:07.098Z,0
2022-08-31T09:24:07.651Z,0
2022-08-31T09:25:07.369Z,0
2022-08-31T09:26:08.573Z,10000
2022-08-31T09:27:07.435Z,0
2022-08-31T09:28:07.853Z,0
2022-08-31T09:29:07.715Z,0
2022-08-31T09:30:07.543Z,0
2022-08-31T09:31:07.676Z,0
2022-08-31T09:32:07.694Z,0
2022-08-31T09:33:07.162Z,0
2022-08-31T09:34:07.719Z,0
2022-08-31T09:35:07.288Z,0
2022-08-31T09:36:07.812Z,0
2022-08-31T09:37:07.410Z,0
2022-08-31T09:38:07.668Z,0
2022-08-31T09:39:07.307Z,0
2022-08-31T09:40:07.792Z,0
2022-08-31T09:41:07.415Z,0
2022-08-31T09:42:07.438Z,0
2022-08-31T09:43:07.567Z,0
2022-08-31T09:44:07.900Z,0
2022-08-31T09:45:08.157Z,0
2022-08-31T09:46:07.657Z,0
2022-08-31T09:47:07.694Z,0
2022-08-31T09:48:07.304Z,0
2022-08-31T09:49:07.628Z,0
2022-08-31T09:50:07.991Z,0
2022-08-31T09:51:07.591Z,0
2022-08-31T09:52:07.182Z,0
2022-08-31T09:53:07.749Z,10000
2022-08-31T09:54:07.552Z,16000
2022-08-31T09:55:07.326Z,10000
2022-08-31T09:56:07.957Z,15500
2022-08-31T09:57:07.978Z,15200
2022-08-31T09:58:07.540Z,15000
2022-08-31T09:59:07.848Z,14000
2022-08-31T10:00:08.468Z,14000
2022-08-31T10:01:07.781Z,13000
2022-08-31T10:02:07.653Z,13000
2022-08-31T10:03:07.242Z,14000
2022-08-31T10:04:07.588Z,15000
2022-08-31T10:05:07.295Z,15300
2022-08-31T10:06:07.729Z,15400
2022-08-31T10:07:07.654Z,15000
2022-08-31T10:08:07.327Z,15956
2022-08-31T10:09:07.604Z,15970
2022-08-31T10:10:07.293Z,16000
2022-08-31T10:11:07.819Z,16160
2022-08-31T10:12:07.341Z,16110
2022-08-31T10:13:07.799Z,16063
2022-08-31T10:14:07.937Z,16110
2022-08-31T10:15:07.542Z,16000
2022-08-31T10:16:07.497Z,15000
2022-08-31T10:17:07.243Z,14000
2022-08-31T10:19:07.447Z,13000
2022-08-31T10:20:08.223Z,12000
2022-08-31T10:21:08.463Z,12665
2022-08-31T10:22:07.345Z,12750
2022-08-31T10:23:07.683Z,12780
2022-08-31T10:24:07.357Z,12800
2022-08-31T10:25:07.768Z,13000
2022-08-31T10:26:07.360Z,13000
2022-08-31T10:27:07.861Z,14000
2022-08-31T10:28:07.792Z,15000
2022-08-31T10:29:07.417Z,16000
2022-08-31T10:30:07.933Z,10000
2022-08-31T10:31:07.784Z,10000
2022-08-31T10:32:07.658Z,0
2022-08-31T10:33:07.390Z,0
2022-08-31T10:34:07.243Z,0
2022-08-31T10:35:07.809Z,0
2022-08-31T10:36:07.139Z,0
2022-08-31T10:37:07.634Z,19000
2022-08-31T10:38:07.210Z,10000
2022-08-31T10:39:07.649Z,18000
2022-08-31T10:40:07.283Z,17900
2022-08-31T10:41:07.978Z,18000
2022-08-31T10:42:07.651Z,10000
2022-08-31T10:43:07.155Z,17800
2022-08-31T10:44:07.482Z,18000
2022-08-31T10:45:08.045Z,0
2022-08-31T10:46:07.718Z,0
2022-08-31T10:47:07.764Z,0
2022-08-31T10:48:07.399Z,0
2022-08-31T10:49:07.807Z,0
2022-08-31T10:50:07.475Z,0
2022-08-31T10:51:07.646Z,20000
2022-08-31T10:52:07.614Z,18000
2022-08-31T10:53:07.075Z,10000
2022-08-31T10:54:07.405Z,10000
2022-08-31T10:55:07.147Z,15000
2022-08-31T10:56:07.817Z,15000
2022-08-31T10:57:07.317Z,0
2022-08-31T10:59:07.515Z,10000
2022-08-31T11:00:07.938Z,10000
2022-08-31T11:01:07.883Z,13000
2022-08-31T11:02:07.581Z,12600
2022-08-31T11:03:07.387Z,12000
2022-08-31T11:04:07.399Z,12000
2022-08-31T11:05:08.157Z,12000
2022-08-31T11:06:07.711Z,11000
2022-08-31T11:07:07.479Z,10000
2022-08-31T11:08:07.201Z,10400
2022-08-31T11:09:07.625Z,10300
2022-08-31T11:10:08.103Z,10000
2022-08-31T11:11:07.550Z,0
2022-08-31T11:12:07.362Z,8000
2022-08-31T11:13:07.515Z,7000
2022-08-31T11:14:07.652Z,7300
2022-08-31T11:15:07.509Z,7300
2022-08-31T11:16:07.652Z,7500
2022-08-31T11:17:07.617Z,7600
2022-08-31T11:18:08.275Z,7695
2022-08-31T11:19:09.384Z,7700
2022-08-31T11:20:07.605Z,7730
2022-08-31T11:21:07.412Z,7670
2022-08-31T11:22:07.849Z,7620
2022-08-31T11:23:07.659Z,7500
2022-08-31T11:24:07.401Z,7486
2022-08-31T11:25:07.801Z,7483.
2022-08-31T11:26:07.547Z,7483
2022-08-31T11:27:07.829Z,7520
2022-08-31T11:28:07.737Z,7582
2022-08-31T11:29:07.116Z,7596.
2022-08-31T11:30:07.458Z,7582
2022-08-31T11:31:07.526Z,7567
2022-08-31T11:32:07.991Z,7560
2022-08-31T11:33:07.511Z,7547.
2022-08-31T11:34:15.901Z,7539
2022-08-31T11:35:07.300Z,7520
2022-08-31T11:36:07.802Z,7490
2022-08-31T11:37:07.435Z,7473
2022-08-31T11:38:07.674Z,7450
2022-08-31T11:39:07.601Z,7300
2022-08-31T11:40:07.489Z,7270
2022-08-31T11:41:07.337Z,7225
2022-08-31T11:42:07.595Z,7260
2022-08-31T11:43:07.187Z,7300
2022-08-31T11:44:07.674Z,7500
2022-08-31T11:45:07.593Z,7700
2022-08-31T11:46:07.437Z,8000
2022-08-31T11:47:07.663Z,8300
2022-08-31T11:48:07.391Z,8500
2022-08-31T11:49:07.885Z,8670
2022-08-31T11:50:07.755Z,8670
2022-08-31T11:51:07.447Z,8600
2022-08-31T11:52:08.022Z,8542
2022-08-31T11:53:07.914Z,8480
2022-08-31T11:54:07.735Z,8300
2022-08-31T11:55:07.366Z,8320
2022-08-31T11:56:07.942Z,8000
2022-08-31T11:57:07.631Z,9000
2022-08-31T11:58:07.258Z,9000
2022-08-31T11:59:08.219Z,10000
2022-08-31T12:00:07.794Z,11000
2022-08-31T12:01:21.377Z,10000
2022-08-31T12:02:07.283Z,10000
2022-08-31T12:03:07.312Z,10000
2022-08-31T12:04:07.669Z,16000
2022-08-31T12:05:08.003Z,16400
2022-08-31T12:06:07.866Z,16000
2022-08-31T12:07:07.589Z,15000
2022-08-31T12:08:07.590Z,10000
2022-08-31T12:09:07.499Z,13000
2022-08-31T12:10:07.366Z,12630
2022-08-31T12:11:07.958Z,12000
2022-08-31T12:12:07.484Z,13000
2022-08-31T12:13:21.378Z,13000
2022-08-31T12:14:07.313Z,14000
2022-08-31T12:15:22.140Z,15000
2022-08-31T12:16:07.506Z,15000
2022-08-31T12:17:07.813Z,15000
2022-08-31T12:18:07.395Z,16300
2022-08-31T12:19:26.781Z,16000
2022-08-31T12:20:07.310Z,10000
2022-08-31T12:21:08.094Z,0
2022-08-31T12:22:07.325Z,0
2022-08-31T12:23:07.529Z,20000
2022-08-31T12:24:07.377Z,20000
2022-08-31T12:25:07.273Z,20000
2022-08-31T12:26:07.738Z,0
2022-08-31T12:27:07.337Z,21000
2022-08-31T12:28:08.014Z,21000
2022-08-31T12:29:07.572Z,20000
2022-08-31T12:30:07.455Z,20000
2022-08-31T12:31:06.994Z,20000
2022-08-31T12:32:10.568Z,20000
2022-08-31T12:33:07.572Z,0
2022-08-31T12:34:07.547Z,0
2022-08-31T12:35:07.437Z,0
2022-08-31T12:36:07.855Z,20000
2022-08-31T12:38:07.425Z,24000
2022-08-31T12:39:07.199Z,20000
2022-08-31T12:40:07.785Z,23000
2022-08-31T12:41:07.696Z,20000
2022-08-31T12:42:07.369Z,0
2022-08-31T12:43:07.638Z,10000
2022-08-31T12:44:10.581Z,15000
2022-08-31T12:45:08.061Z,14700
2022-08-31T12:46:07.745Z,14000
2022-08-31T12:48:07.681Z,0
2022-08-31T12:49:07.656Z,0
2022-08-31T12:50:07.544Z,20000
2022-08-31T12:51:07.710Z,0
2022-08-31T12:52:07.372Z,20000
2022-08-31T12:53:07.574Z,23000
2022-08-31T12:54:07.284Z,23000
2022-08-31T12:55:09.393Z,0
2022-08-31T12:56:07.300Z,0
2022-08-31T12:57:07.642Z,30000
2022-08-31T12:58:07.299Z,0
2022-08-31T12:59:07.581Z,0
2022-08-31T13:00:07.821Z,20000
2022-08-31T13:01:09.499Z,0
2022-08-31T13:02:07.570Z,0
2022-08-31T13:03:07.522Z,0
2022-08-31T13:04:07.633Z,0
2022-08-31T13:05:07.256Z,0
2022-08-31T13:06:07.565Z,0
2022-08-31T13:07:07.764Z,0
2022-08-31T13:08:10.847Z,0
2022-08-31T13:09:07.916Z,0
2022-08-31T13:10:07.888Z,0
2022-08-31T13:11:07.472Z,0
2022-08-31T13:12:07.809Z,0
2022-08-31T13:13:07.576Z,0
2022-08-31T13:14:07.080Z,0
2022-08-31T13:15:07.758Z,0
2022-08-31T13:16:07.343Z,0
2022-08-31T13:17:08.154Z,0
2022-08-31T13:18:07.825Z,20000
2022-08-31T13:19:07.407Z,10000
2022-08-31T13:20:07.489Z,0
2022-08-31T13:21:07.984Z,0
2022-08-31T13:22:07.660Z,0
2022-08-31T13:23:07.121Z,0
2022-08-31T13:24:07.762Z,0
2022-08-31T13:25:07.333Z,0
2022-08-31T13:26:07.559Z,0
2022-08-31T13:27:07.291Z,0
2022-08-31T13:28:07.779Z,0
2022-08-31T13:29:07.292Z,0
2022-08-31T13:30:07.963Z,0
2022-08-31T13:31:07.643Z,0
2022-08-31T13:32:07.608Z,0
2022-08-31T13:33:07.253Z,0
2022-08-31T13:34:08.156Z,13000
2022-08-31T13:35:07.799Z,0
2022-08-31T13:36:07.499Z,0
2022-08-31T13:37:07.193Z,16000
2022-08-31T13:38:07.727Z,0
2022-08-31T13:39:07.438Z,13000